Latest Weather Observations for Laverton

IDV60801

Issued at 5:32 pm EST Thursday 3 September 2026 (issued every 10 minutes, with the page automatically refreshed every 10 minutes)

About weather observations | Map of weather stations | Latest weather observations for VIC | Other Formats
Station Details ID: 087031 Name: LAVERTON RAAF Lat: -37.86 Lon: 144.76 Height: 20.1 m
Data from the previous 72 hours. | See also: Recent months at Laverton
Date/Time
EST
Temp
°C
App
Temp
°C
Dew
Point
°C
Rel
Hum
%
Delta-T
°C
Wind Press
QNH
hPa
Press
MSL
hPa
Rain since
9am
mm
Dir  Spd
km/h
Gust
km/h
Spd
kts
Gust
kts
03/05:30pm 14.9 10.3 6.5 57 4.1 WSW 20 30 11 16 1016.1 1016.1 1.2
03/05:00pm 15.4 10.8 6.7 56 4.2 SW 20 30 11 16 1015.6 1015.6 1.2
03/04:30pm 16.1 11.5 6.5 53 4.7 WSW 20 30 11 16 1015.0 1015.0 1.2
03/04:00pm 16.8 11.8 6.3 50 5.1 WSW 22 35 12 19 1014.7 1014.7 1.2
03/03:30pm 17.5 11.3 6.1 47 5.6 W 28 39 15 21 1014.2 1014.2 1.2
03/03:00pm 16.7 12.2 6.8 52 4.9 W 20 30 11 16 1013.9 1013.9 1.2
03/02:30pm 16.4 11.1 6.8 53 4.7 WSW 24 33 13 18 1014.0 1014.0 1.2
03/02:07pm 17.1 10.8 7.2 52 4.9 WSW 30 46 16 25 1013.5 1013.5 1.2
03/02:00pm 16.9 9.9 6.7 51 5.0 WSW 33 50 18 27 1013.4 1013.4 1.2
03/01:55pm 16.7 9.8 6.5 51 5.0 WSW 32 50 17 27 1013.4 1013.4 1.2
03/01:51pm 17.0 9.9 6.5 50 5.2 WSW 33 48 18 26 1013.4 1013.4 1.2
03/01:41pm 16.6 9.7 6.4 51 5.0 WSW 32 50 17 27 1013.3 1013.3 1.2
03/01:39pm 16.4 9.3 6.5 52 4.9 WSW 33 50 18 27 1013.3 1013.3 1.2
03/01:30pm 15.7 8.3 6.7 55 4.4 WSW 35 52 19 28 1013.4 1013.4 1.2
03/01:22pm 15.6 9.9 8.4 62 3.6 WSW 28 46 15 25 1013.4 1013.4 1.2
03/01:00pm 17.0 12.6 10.4 65 3.5 W 24 33 13 18 1013.1 1013.1 1.2
03/12:30pm 14.6 9.3 10.0 74 2.4 W 28 41 15 22 1013.2 1013.2 1.2
03/12:11pm 13.3 8.6 10.5 83 1.5 W 26 35 14 19 1013.3 1013.3 1.2
03/12:00pm 12.8 8.2 11.0 89 0.9 WSW 26 43 14 23 1013.3 1013.3 1.0
03/11:44am 13.0 9.8 13.0 100 0.0 WSW 22 33 12 18 1013.2 1013.2 0.8
03/11:32am 12.4 7.4 11.1 92 0.7 SW 28 46 15 25 1013.2 1013.2 0.6
03/11:30am 12.3 7.1 10.2 87 1.1 WSW 28 46 15 25 1013.3 1013.3 0.2
03/11:00am 16.6 10.4 9.3 62 3.8 WNW 32 44 17 24 1012.4 1012.4 0.0
03/10:56am 16.7 10.8 9.1 61 3.9 WNW 30 41 16 22 1012.4 1012.4 0.0
03/10:42am 15.3 9.6 8.3 63 3.5 WNW 28 48 15 26 1012.2 1012.2 0.0
03/10:30am 15.5 10.1 9.4 67 3.2 WNW 28 44 15 24 1012.1 1012.1 0.0
03/10:00am 14.6 10.4 9.8 73 2.5 W 22 32 12 17 1012.3 1012.3 0.0
03/09:30am 14.7 10.7 8.9 68 3.0 NW 20 28 11 15 1011.9 1011.9 0.0
03/09:00am 14.7 9.0 8.4 66 3.2 NW 28 35 15 19 1011.2 1011.3 0.0
03/08:30am 14.0 9.4 8.2 68 2.9 NW 22 32 12 17 1010.9 1011.0 0.0
03/08:00am 12.1 9.0 7.2 72 2.4 N 13 19 7 10 1010.7 1010.8 0.0
03/07:30am 11.7 8.4 6.6 71 2.4 N 13 17 7 9 1010.7 1010.8 0.0
03/07:00am 11.7 8.8 6.6 71 2.4 N 11 15 6 8 1010.1 1010.2 0.0
03/06:30am 11.8 7.7 6.1 68 2.7 N 17 28 9 15 1009.5 1009.6 0.0
03/06:00am 11.4 7.7 6.1 70 2.5 NNW 15 20 8 11 1009.8 1009.9 0.0
03/05:30am 10.5 7.1 5.7 72 2.2 NNW 13 19 7 10 1009.8 1009.9 0.0
03/05:00am 10.7 6.1 5.5 70 2.4 NNW 19 24 10 13 1009.4 1009.5 0.0
03/04:30am 10.3 5.6 5.3 71 2.3 NNW 19 26 10 14 1009.0 1009.1 0.0
03/04:00am 10.7 6.0 5.0 68 2.6 NNW 19 26 10 14 1008.9 1009.0 0.0
03/03:30am 10.0 6.0 5.0 71 2.3 NNW 15 24 8 13 1009.3 1009.4 0.0
03/03:00am 9.8 6.6 5.0 72 2.2 N 11 17 6 9 1009.7 1009.8 0.0
03/02:30am 9.8 6.2 5.0 72 2.2 N 13 17 7 9 1010.1 1010.2 0.0
03/02:00am 9.3 6.5 5.3 76 1.8 N 9 13 5 7 1010.4 1010.5 0.0
03/01:30am 9.5 6.0 5.3 75 1.9 N 13 19 7 10 1010.5 1010.6 0.0
03/01:00am 10.0 6.2 5.6 74 2.0 NNW 15 20 8 11 1010.6 1010.7 0.0
03/12:30am 9.6 6.4 5.2 74 2.0 N 11 15 6 8 1010.6 1010.7 0.0
03/12:00am 9.5 6.6 4.7 72 2.1 NNW 9 13 5 7 1011.0 1011.1 0.0
 
Date/Time
EST
Temp
°C
App
Temp
°C
Dew
Point
°C
Rel
Hum
%
Delta-T
°C
Wind Press
QNH
hPa
Press
MSL
hPa
Rain since
9am
mm
Dir  Spd
km/h
Gust
km/h
Spd
kts
Gust
kts
02/11:30pm 10.6 7.4 4.9 68 2.6 NNW 11 15 6 8 1011.1 1011.2 0.0
02/11:00pm 10.7 7.4 4.8 67 2.7 NNW 11 17 6 9 1011.5 1011.6 0.0
02/10:30pm 10.5 7.2 4.6 67 2.6 NW 11 17 6 9 1011.8 1011.8 0.0
02/10:00pm 11.0 6.6 4.9 66 2.8 NW 17 24 9 13 1012.2 1012.2 0.0
02/09:30pm 11.6 7.6 4.8 63 3.1 NW 15 20 8 11 1012.0 1012.0 0.0
02/09:00pm 12.3 8.4 5.5 63 3.2 NNW 15 20 8 11 1012.3 1012.3 0.0
02/08:30pm 13.4 9.6 6.0 61 3.5 NW 15 19 8 10 1012.2 1012.2 0.0
02/08:00pm 13.7 9.8 7.2 65 3.2 NW 17 24 9 13 1012.1 1012.1 0.0
02/07:30pm 12.6 11.0 8.9 78 1.9 NE 7 9 4 5 1012.0 1012.0 0.0
02/07:00pm 12.5 10.8 8.4 76 2.0 ENE 7 9 4 5 1011.5 1011.6 0.0
02/06:30pm 12.3 10.6 8.2 76 2.0 ENE 7 7 4 4 1011.3 1011.4 0.0
02/06:00pm 13.1 10.9 8.0 71 2.5 ENE 9 11 5 6 1011.3 1011.4 0.0
02/05:30pm 15.0 13.2 8.0 63 3.5 SSW 7 17 4 9 1011.0 1011.1 0.0
02/05:00pm 16.9 13.7 6.7 51 5.0 W 13 19 7 10 1011.0 1011.1 0.0
02/04:30pm 17.0 13.4 6.8 51 5.1 W 15 20 8 11 1011.2 1011.3 0.0
02/04:00pm 17.3 13.4 7.1 51 5.1 WNW 17 26 9 14 1011.7 1011.7 0.0
02/03:30pm 17.1 13.1 6.6 50 5.2 W 17 24 9 13 1012.1 1012.1 0.0
02/03:00pm 17.4 13.5 7.2 51 5.1 W 17 26 9 14 1012.2 1012.2 0.0
02/02:30pm 16.1 13.2 6.5 53 4.7 W 11 19 6 10 1012.4 1012.4 0.0
02/02:00pm 16.2 13.6 7.7 57 4.3 WNW 11 19 6 10 1012.7 1012.7 0.0
02/01:30pm 16.6 14.5 8.3 58 4.2 SW 9 17 5 9 1012.9 1012.9 0.0
02/01:00pm 15.5 12.3 6.8 56 4.3 WSW 13 19 7 10 1013.5 1013.5 0.0
02/12:30pm 15.6 11.7 6.9 56 4.3 W 17 24 9 13 1014.2 1014.2 0.0
02/12:00pm 15.5 12.0 7.0 57 4.2 W 15 24 8 13 1014.6 1014.6 0.0
02/11:30am 14.6 11.0 6.9 60 3.8 W 15 26 8 14 1014.9 1014.9 0.0
02/11:00am 14.6 10.5 6.4 58 4.0 W 17 28 9 15 1015.2 1015.2 0.0
02/10:30am 13.8 9.2 6.4 61 3.6 W 20 30 11 16 1015.4 1015.4 0.0
02/10:00am 14.2 9.3 6.8 61 3.6 WSW 22 30 12 16 1015.6 1015.6 0.0
02/09:30am 13.6 9.0 6.7 63 3.3 WSW 20 32 11 17 1015.8 1015.8 0.0
02/09:00am 12.9 8.4 6.9 67 2.9 WSW 20 28 11 15 1015.7 1015.7 0.2
02/08:30am 12.9 8.8 8.0 72 2.4 WSW 19 28 10 15 1015.6 1015.6 0.2
02/08:00am 12.3 9.0 8.2 76 2.0 WSW 15 20 8 11 1015.5 1015.5 0.2
02/07:30am 12.2 8.2 8.1 76 2.0 SW 19 26 10 14 1015.0 1015.0 0.2
02/07:00am 11.8 9.0 8.6 81 1.6 WSW 13 19 7 10 1014.9 1014.9 0.2
02/06:30am 12.1 9.0 8.9 81 1.6 WSW 15 20 8 11 1014.5 1014.5 0.2
02/06:00am 11.8 8.5 9.5 86 1.2 WSW 17 22 9 12 1014.1 1014.1 0.2
02/05:30am 12.2 9.1 10.4 89 0.9 WSW 17 24 9 13 1014.0 1014.0 0.2
02/05:00am 12.5 9.9 10.6 88 1.0 WSW 15 20 8 11 1013.8 1013.8 0.2
02/04:30am 12.6 9.2 10.7 88 1.0 WSW 19 28 10 15 1013.4 1013.4 0.2
02/04:00am 12.8 9.5 11.7 93 0.6 WSW 20 30 11 16 1013.0 1013.0 0.2
02/03:30am 13.8 10.2 11.7 87 1.1 WSW 22 32 12 17 1013.0 1013.0 0.2
02/03:00am 15.4 13.8 11.4 77 2.1 NNW 11 15 6 8 1012.4 1012.4 0.2
02/02:30am 15.5 13.8 11.1 75 2.4 NW 11 19 6 10 1012.5 1012.5 0.2
02/02:00am 15.6 13.5 11.2 75 2.4 NNW 13 20 7 11 1012.6 1012.6 0.2
02/01:30am 14.8 13.9 10.6 76 2.2 NNW 6 7 3 4 1012.8 1012.8 0.2
02/01:00am 14.8 12.5 10.4 75 2.3 NW 13 19 7 10 1012.6 1012.6 0.2
02/12:30am 15.8 13.2 10.6 71 2.8 NW 15 20 8 11 1012.5 1012.5 0.2
02/12:00am 16.1 13.1 10.6 70 2.9 NW 17 22 9 12 1012.5 1012.5 0.2
 
Date/Time
EST
Temp
°C
App
Temp
°C
Dew
Point
°C
Rel
Hum
%
Delta-T
°C
Wind Press
QNH
hPa
Press
MSL
hPa
Rain since
9am
mm
Dir  Spd
km/h
Gust
km/h
Spd
kts
Gust
kts
01/11:30pm 16.8 12.7 10.2 65 3.5 NW 22 28 12 15 1012.6 1012.6 0.2
01/11:00pm 17.0 12.1 10.1 64 3.6 NW 26 35 14 19 1012.6 1012.6 0.2
01/10:30pm 17.4 13.3 10.1 62 3.9 NW 22 33 12 18 1012.7 1012.7 0.2
01/10:00pm 17.3 12.5 10.4 64 3.7 NNW 26 37 14 20 1012.6 1012.6 0.2
01/09:30pm 17.7 13.6 10.1 61 4.0 NNW 22 33 12 18 1012.5 1012.5 0.2
01/09:00pm 17.7 13.9 9.8 60 4.2 NNW 20 28 11 15 1012.6 1012.6 0.2
01/08:30pm 18.2 13.6 9.8 58 4.4 NNW 24 39 13 21 1012.3 1012.3 0.2
01/08:00pm 18.7 14.7 9.2 54 5.0 NNW 20 28 11 15 1012.4 1012.4 0.2
01/07:30pm 19.4 14.6 8.7 50 5.6 NNW 24 39 13 21 1012.4 1012.4 0.2
01/07:00pm 19.3 15.8 8.9 51 5.4 N 17 24 9 13 1012.6 1012.6 0.2
01/06:30pm 19.7 16.2 8.7 49 5.8 N 17 26 9 14 1012.7 1012.7 0.2
01/06:00pm 19.7 15.8 8.7 49 5.8 N 19 26 10 14 1013.2 1013.2 0.2
01/05:30pm 19.9 16.4 8.6 48 5.9 N 17 24 9 13 1013.5 1013.5 0.2
01/05:00pm 20.2 16.0 8.2 46 6.2 NNW 20 28 11 15 1013.4 1013.4 0.2
01/04:30pm 20.0 15.7 8.0 46 6.2 NNW 20 32 11 17 1013.5 1013.5 0.2
01/04:00pm 20.4 13.7 7.4 43 6.7 NNW 32 44 17 24 1013.4 1013.4 0.2
01/03:30pm 20.4 14.8 7.1 42 6.8 NNW 26 39 14 21 1013.2 1013.2 0.2
01/03:03pm 20.9 13.8 6.4 39 7.3 NNW 33 48 18 26 1013.0 1013.0 0.2
01/03:00pm 20.9 14.1 6.8 40 7.2 NNW 32 48 17 26 1012.9 1012.9 0.2
01/02:30pm 21.7 14.7 6.0 36 7.9 NNW 32 48 17 26 1013.2 1013.2 0.2
01/02:00pm 21.8 14.6 6.1 36 7.9 NNW 33 46 18 25 1014.0 1014.0 0.2
01/01:55pm 21.9 15.8 6.6 37 7.8 NNW 28 46 15 25 1013.9 1013.9 0.2
01/01:40pm 21.6 16.4 8.8 44 6.8 NNW 26 41 14 22 1014.2 1014.2 0.2
01/01:30pm 21.2 15.5 8.5 44 6.7 NNW 28 46 15 25 1014.6 1014.6 0.2
01/01:24pm 21.1 15.3 8.0 43 6.8 NNW 28 46 15 25 1014.8 1014.8 0.2
01/01:02pm 21.2 15.2 8.5 44 6.7 NNW 30 43 16 23 1015.3 1015.3 0.0
01/01:00pm 21.0 14.5 8.3 44 6.6 NNW 32 43 17 23 1015.3 1015.3 0.0
01/12:43pm 20.8 14.5 7.4 42 6.9 NNW 30 57 16 31 1015.4 1015.4 0.0
01/12:30pm 20.9 14.8 8.2 44 6.6 NNW 30 44 16 24 1015.9 1015.9 0.0
01/12:22pm 20.8 14.1 8.1 44 6.6 NNW 33 48 18 26 1016.0 1016.0 0.0
01/12:00pm 20.8 13.5 7.4 42 6.9 NNW 35 56 19 30 1016.4 1016.4 0.0
01/11:51am 20.9 15.0 7.5 42 6.9 NNW 28 52 15 28 1016.6 1016.6 0.0
01/11:30am 20.4 15.2 7.4 43 6.7 NNW 24 39 13 21 1017.0 1017.0 0.0
01/11:00am 19.9 14.9 7.9 46 6.2 N 24 39 13 21 1017.1 1017.1 0.0
01/10:30am 18.9 14.3 9.7 55 4.9 N 24 35 13 19 1017.6 1017.6 0.0
01/10:00am 17.1 12.4 10.5 65 3.5 NNE 26 39 14 21 1018.7 1018.7 0.0
01/09:30am 15.8 9.9 10.3 70 2.9 NNE 32 44 17 24 1018.8 1018.8 0.0
01/09:00am 15.5 11.2 10.7 73 2.5 N 24 35 13 19 1019.8 1019.8 0.0
01/08:30am 15.2 11.8 10.4 73 2.5 N 19 24 10 13 1020.3 1020.3 0.0
01/08:00am 13.7 12.9 10.9 83 1.5 N 6 13 3 7 1020.8 1020.8 0.0
01/07:30am 12.8 10.7 11.0 89 0.9 NNE 13 17 7 9 1020.8 1020.8 0.0
01/07:00am 12.0 10.0 11.4 96 0.3 NNE 13 20 7 11 1020.7 1020.7 0.0
01/06:30am 11.7 9.7 11.5 99 0.1 NNE 13 17 7 9 1020.6 1020.6 0.0
01/06:00am 12.1 9.9 12.1 100 0.0 NNE 15 22 8 12 1021.0 1021.0 0.0
01/05:30am 12.2 9.7 12.2 100 0.0 NNE 17 20 9 11 1021.0 1021.0 0.0
01/05:00am 12.4 10.3 12.4 100 0.0 NNE 15 20 8 11 1021.0 1021.0 0.0
01/04:30am 11.4 10.5 11.4 100 0.0 NNE 7 11 4 6 1021.4 1021.4 0.0
01/04:00am 11.7 10.1 11.7 100 0.0 N 11 15 6 8 1021.9 1021.9 0.0
01/03:30am 11.3 10.0 11.3 100 0.0 N 9 15 5 8 1022.2 1022.2 0.0
01/03:00am 10.7 8.9 10.7 100 0.0 N 11 13 6 7 1022.6 1022.6 0.0
01/02:30am 8.3 6.6 8.3 100 0.0 NNW 7 9 4 5 1023.1 1023.1 0.0
01/02:00am 9.3 7.4 9.2 99 0.0 NNW 9 11 5 6 1023.5 1023.5 0.0
01/01:30am 9.1 7.2 9.1 100 0.0 NW 9 13 5 7 1023.8 1023.8 0.0
01/01:00am 9.8 8.1 9.8 100 0.0 NNW 9 13 5 7 1024.0 1024.0 0.0
01/12:30am 7.5 6.2 7.5 100 0.0 N 4 7 2 4 1024.3 1024.3 0.0
01/12:00am 8.1 6.9 8.1 100 0.0 N 4 7 2 4 1024.9 1024.9 0.0
 
Date/Time
EST
Temp
°C
App
Temp
°C
Dew
Point
°C
Rel
Hum
%
Delta-T
°C
Wind Press
QNH
hPa
Press
MSL
hPa
Rain since
9am
mm
Dir  Spd
km/h
Gust
km/h
Spd
kts
Gust
kts
31/11:30pm 8.2 6.6 8.2 100 0.0 N 6 9 3 5 1025.4 1025.4 0.0
31/11:00pm 8.1 6.9 8.1 100 0.0 NNW 4 9 2 5 1025.8 1025.8 0.0
31/10:30pm 8.8 7.4 8.8 100 0.0 NW 6 7 3 4 1026.2 1026.2 0.0
31/10:00pm 9.3 7.1 9.3 100 0.0 NNW 11 13 6 7 1026.4 1026.4 0.0
31/09:30pm 9.7 8.5 9.7 100 0.0 ENE 6 7 3 4 1026.6 1026.6 0.0
31/09:00pm 9.8 8.7 9.8 100 0.0 ENE 6 7 3 4 1026.7 1026.7 0.0
31/08:30pm 10.7 9.6 10.7 100 0.0 ENE 7 9 4 5 1026.9 1026.9 0.0
31/08:00pm 10.3 9.3 10.3 100 0.0 ENE 6 7 3 4 1027.1 1027.1 0.0
31/07:30pm 9.8 9.8 9.8 100 0.0 CALM 0 0 0 0 1027.2 1027.2 0.0
31/07:00pm 10.4 9.4 10.2 99 0.1 SE 6 7 3 4 1027.2 1027.2 0.0
31/06:30pm 11.1 9.9 9.7 91 0.7 SE 6 7 3 4 1027.4 1027.4 0.0
31/06:00pm 11.8 10.4 9.5 86 1.2 SE 7 11 4 6 1027.4 1027.4 0.0

Other formats

Comma delimited format used in spreadsheet applications
http://www.bom.gov.au/fwo/IDV60801/IDV60801.94865.axf

JavaScript Object Notation format (JSON) in row-major order
http://www.bom.gov.au/fwo/IDV60801/IDV60801.94865.json

Data quality

Most of these data are generated automatically and are frequently updated. Quality checks on data are not normally performed. It is possible for incorrect values to appear. Refer to information at About Latest Weather Observations and please check the disclaimer before using these data.